createdAt,value
2017-12-19T00:01:54.968Z,98112.20
2017-12-19T00:04:22.549Z,98097.95
2017-12-19T00:06:50.211Z,98104.55
2017-12-19T00:09:17.779Z,98105.77
2017-12-19T00:11:45.336Z,98109.77
2017-12-19T00:14:12.996Z,98112.37
2017-12-19T00:16:40.544Z,98118.53
2017-12-19T00:19:08.100Z,98126.19
2017-12-19T00:21:35.750Z,98124.23
2017-12-19T00:24:03.286Z,98126.89
2017-12-19T00:26:31.275Z,98130.73
2017-12-19T00:28:58.822Z,98129.58
2017-12-19T00:31:26.451Z,98125.37
2017-12-19T00:33:54.038Z,98129.48
2017-12-19T00:36:21.578Z,98116.81
2017-12-19T00:38:49.159Z,98111.05
2017-12-19T00:41:16.753Z,98116.48
2017-12-19T00:43:44.339Z,98123.97
2017-12-19T00:46:11.956Z,98125.72
2017-12-19T00:48:39.565Z,98131.24
2017-12-19T00:51:07.157Z,98129.56
2017-12-19T00:53:34.754Z,98136.53
2017-12-19T00:56:02.795Z,98141.28
2017-12-19T00:58:30.353Z,98145.09
2017-12-19T01:00:57.939Z,98144.45
2017-12-19T01:03:25.511Z,98145.91
2017-12-19T01:05:53.112Z,98146.05
2017-12-19T01:08:20.726Z,98156.67
2017-12-19T01:10:48.286Z,98167.80
2017-12-19T01:13:15.855Z,98164.76
2017-12-19T01:15:43.384Z,98160.64
2017-12-19T01:18:10.936Z,98160.55
2017-12-19T01:20:38.561Z,98164.22
2017-12-19T01:23:06.103Z,98154.89
2017-12-19T01:25:34.184Z,98168.13
2017-12-19T01:28:01.790Z,98167.22
2017-12-19T01:30:29.884Z,98181.41
2017-12-19T01:32:57.443Z,98180.16
2017-12-19T01:35:24.994Z,98182.02
2017-12-19T01:37:52.551Z,98184.01
2017-12-19T01:40:20.090Z,98184.61
2017-12-19T01:42:47.636Z,98188.93
2017-12-19T01:45:15.283Z,98181.21
2017-12-19T01:47:42.870Z,98175.95
2017-12-19T01:50:10.408Z,98177.91
2017-12-19T01:52:38.000Z,98176.49
2017-12-19T01:55:05.582Z,98175.95
2017-12-19T01:57:33.148Z,98172.65
2017-12-19T02:00:00.730Z,98186.47
2017-12-19T02:02:28.400Z,98176.25
2017-12-19T02:04:56.384Z,98177.88
2017-12-19T02:07:23.993Z,98178.98
2017-12-19T02:09:51.541Z,98181.31
2017-12-19T02:12:19.128Z,98177.64
2017-12-19T02:14:46.715Z,98178.21
2017-12-19T02:17:14.283Z,98178.21
2017-12-19T02:19:41.853Z,98167.59
2017-12-19T02:22:09.430Z,98176.12
2017-12-19T02:24:36.988Z,98178.11
2017-12-19T02:27:04.514Z,98188.32
2017-12-19T02:29:32.085Z,98176.26
2017-12-19T02:31:59.627Z,98175.72
2017-12-19T02:34:27.607Z,98171.16
2017-12-19T02:36:55.186Z,98172.58
2017-12-19T02:39:22.721Z,98171.57
2017-12-19T02:41:50.295Z,98172.48
2017-12-19T02:44:17.872Z,98164.46
2017-12-19T02:46:45.439Z,98168.91
2017-12-19T02:49:12.980Z,98166.31
2017-12-19T02:51:41.023Z,98165.00
2017-12-19T02:54:08.586Z,98173.36
2017-12-19T02:56:36.146Z,98175.75
2017-12-19T02:59:03.812Z,98180.19
2017-12-19T03:01:31.381Z,98178.44
2017-12-19T03:03:59.412Z,98184.84
2017-12-19T03:06:26.966Z,98190.27
2017-12-19T03:08:54.538Z,98194.82
2017-12-19T03:11:22.118Z,98190.91
2017-12-19T03:13:49.739Z,98204.09
2017-12-19T03:16:17.600Z,98208.50
2017-12-19T03:18:45.162Z,98211.57
2017-12-19T03:21:12.701Z,98202.41
2017-12-19T03:23:40.348Z,98204.59
2017-12-19T03:26:07.882Z,98196.61
2017-12-19T03:28:35.704Z,98211.64
2017-12-19T03:31:03.286Z,98205.44
2017-12-19T03:33:31.159Z,98219.55
2017-12-19T03:35:58.776Z,98228.98
2017-12-19T03:38:26.328Z,98229.39
2017-12-19T03:40:54.234Z,98225.35
2017-12-19T03:43:21.770Z,98227.78
2017-12-19T03:45:49.314Z,98226.50
2017-12-19T03:48:16.948Z,98225.63
2017-12-19T03:50:44.512Z,98224.55
2017-12-19T03:53:12.074Z,98234.02
2017-12-19T03:55:39.626Z,98237.86
2017-12-19T03:58:07.172Z,98229.84
2017-12-19T04:00:34.736Z,98231.45
2017-12-19T04:03:02.292Z,98238.94
2017-12-19T04:05:30.136Z,98238.09
2017-12-19T04:07:57.682Z,98244.36
2017-12-19T04:10:25.260Z,98240.02
2017-12-19T04:12:52.814Z,98244.91
2017-12-19T04:15:20.418Z,98246.50
2017-12-19T04:17:47.987Z,98251.95
2017-12-19T04:20:15.535Z,98249.52
2017-12-19T04:22:43.424Z,98255.75
2017-12-19T04:25:10.964Z,98261.81
2017-12-19T04:27:38.504Z,98256.19
2017-12-19T04:30:06.161Z,98251.11
2017-12-19T04:32:33.673Z,98243.83
2017-12-19T04:35:01.254Z,98249.70
2017-12-19T04:37:28.889Z,98253.73
2017-12-19T04:39:56.747Z,98254.01
2017-12-19T04:42:24.380Z,98263.98
2017-12-19T04:44:51.940Z,98258.47
2017-12-19T04:47:19.533Z,98257.80
2017-12-19T04:49:47.119Z,98269.47
2017-12-19T04:52:14.715Z,98264.21
2017-12-19T04:54:42.272Z,98258.45
2017-12-19T04:57:09.871Z,98269.84
2017-12-19T04:59:37.430Z,98263.44
2017-12-19T05:02:04.963Z,98262.05
2017-12-19T05:04:32.690Z,98269.84
2017-12-19T05:07:00.249Z,98274.26
2017-12-19T05:09:28.195Z,98275.06
2017-12-19T05:11:55.754Z,98281.34
2017-12-19T05:14:23.370Z,98280.48
2017-12-19T05:16:50.903Z,98282.44
2017-12-19T05:19:18.436Z,98283.72
2017-12-19T05:21:46.056Z,98289.22
2017-12-19T05:24:13.652Z,98281.23
2017-12-19T05:26:41.522Z,98285.88
2017-12-19T05:29:09.124Z,98296.98
2017-12-19T05:31:36.817Z,98302.92
2017-12-19T05:34:04.396Z,98310.13
2017-12-19T05:36:32.040Z,98308.34
2017-12-19T05:38:59.603Z,98299.14
2017-12-19T05:41:27.159Z,98312.75
2017-12-19T05:43:54.718Z,98321.23
2017-12-19T05:46:22.304Z,98320.88
2017-12-19T05:48:49.851Z,98315.44
2017-12-19T05:51:17.440Z,98323.30
2017-12-19T05:53:45.046Z,98333.94
2017-12-19T05:56:12.748Z,98344.61
2017-12-19T05:58:40.388Z,98338.27
2017-12-19T06:01:08.014Z,98336.52
2017-12-19T06:03:35.690Z,98328.93
2017-12-19T06:06:03.260Z,98338.53
2017-12-19T06:08:30.844Z,98344.80
2017-12-19T06:10:58.399Z,98345.86
2017-12-19T06:13:25.935Z,98357.66
2017-12-19T06:15:53.575Z,98365.39
2017-12-19T06:18:21.130Z,98387.58
2017-12-19T06:20:48.953Z,98386.72
2017-12-19T06:23:16.495Z,98373.20
2017-12-19T06:25:44.939Z,98361.62
2017-12-19T06:28:12.494Z,98360.97
2017-12-19T06:30:40.062Z,98368.31
2017-12-19T06:33:08.153Z,98367.36
2017-12-19T06:35:35.732Z,98372.13
2017-12-19T06:38:03.277Z,98369.80
2017-12-19T06:40:30.991Z,98373.14
2017-12-19T06:42:58.534Z,98383.30
2017-12-19T06:45:26.364Z,98386.33
2017-12-19T06:47:53.905Z,98397.41
2017-12-19T06:50:21.444Z,98391.23
2017-12-19T06:52:49.013Z,98384.05
2017-12-19T06:55:16.556Z,98385.37
2017-12-19T06:57:44.126Z,98395.33
2017-12-19T07:00:11.767Z,98393.39
2017-12-19T07:02:39.761Z,98401.72
2017-12-19T07:05:07.310Z,98405.36
2017-12-19T07:07:34.866Z,98409.09
2017-12-19T07:10:02.387Z,98419.95
2017-12-19T07:12:29.890Z,98432.58
2017-12-19T07:14:57.425Z,98430.23
2017-12-19T07:17:24.950Z,98424.58
2017-12-19T07:19:54.109Z,98433.56
2017-12-19T07:22:21.692Z,98433.05
2017-12-19T07:24:49.236Z,98440.87
2017-12-19T07:27:17.028Z,98428.73
2017-12-19T07:29:44.552Z,98440.06
2017-12-19T07:32:12.088Z,98436.42
2017-12-19T07:34:39.606Z,98438.15
2017-12-19T07:37:07.106Z,98435.98
2017-12-19T07:39:35.420Z,98433.05
2017-12-19T07:42:02.977Z,98421.56
2017-12-19T07:44:30.826Z,98430.91
2017-12-19T07:46:58.356Z,98442.07
2017-12-19T07:49:25.909Z,98448.59
2017-12-19T07:51:53.573Z,98444.15
2017-12-19T07:54:21.121Z,98442.09
2017-12-19T07:56:49.312Z,98443.30
2017-12-19T07:59:16.852Z,98444.28
2017-12-19T08:01:44.403Z,98440.31
2017-12-19T08:04:11.993Z,98439.67
2017-12-19T08:06:39.553Z,98438.53
2017-12-19T08:09:07.108Z,98447.45
2017-12-19T08:11:34.677Z,98447.01
2017-12-19T08:14:02.235Z,98449.94
2017-12-19T08:16:29.805Z,98442.56
2017-12-19T08:18:57.376Z,98438.22
2017-12-19T08:21:24.985Z,98437.15
2017-12-19T08:23:52.528Z,98456.36
2017-12-19T08:26:20.459Z,98453.20
2017-12-19T08:28:48.004Z,98447.24
2017-12-19T08:31:15.545Z,98448.30
2017-12-19T08:33:43.110Z,98445.39
2017-12-19T08:36:10.655Z,98451.11
2017-12-19T08:38:38.236Z,98443.36
2017-12-19T08:41:05.770Z,98441.88
2017-12-19T08:43:33.334Z,98447.66
2017-12-19T08:46:00.916Z,98445.38
2017-12-19T08:48:28.460Z,98447.16
2017-12-19T08:50:56.270Z,98450.75
2017-12-19T08:53:23.823Z,98447.62
2017-12-19T08:55:51.363Z,98444.45
2017-12-19T08:58:18.933Z,98443.91
2017-12-19T09:00:46.507Z,98449.25
2017-12-19T09:03:14.078Z,98452.28
2017-12-19T09:05:41.680Z,98460.76
2017-12-19T09:08:09.263Z,98461.16
2017-12-19T09:10:36.827Z,98469.20
2017-12-19T09:13:04.379Z,98484.20
2017-12-19T09:15:31.981Z,98487.48
2017-12-19T09:17:59.588Z,98504.94
2017-12-19T09:20:27.143Z,98505.66
2017-12-19T09:22:54.766Z,98522.16
2017-12-19T09:25:22.412Z,98514.39
2017-12-19T09:27:50.258Z,98515.48
2017-12-19T09:30:17.816Z,98524.84
2017-12-19T09:32:45.370Z,98530.69
2017-12-19T09:35:12.893Z,98522.28
2017-12-19T09:37:40.439Z,98532.16
2017-12-19T09:40:08.364Z,98527.97
2017-12-19T09:42:35.944Z,98523.11
2017-12-19T09:45:03.481Z,98511.46
2017-12-19T09:47:31.074Z,98505.05
2017-12-19T09:49:58.886Z,98503.53
2017-12-19T09:52:26.496Z,98508.97
2017-12-19T09:54:54.039Z,98520.86
2017-12-19T09:57:21.865Z,98520.16
2017-12-19T09:59:49.430Z,98517.02
2017-12-19T10:02:16.988Z,98514.24
2017-12-19T10:04:44.598Z,98511.07
2017-12-19T10:07:12.154Z,98502.48
2017-12-19T10:09:39.770Z,98499.05
2017-12-19T10:12:07.530Z,98504.31
2017-12-19T10:14:35.505Z,98507.52
2017-12-19T10:17:03.058Z,98504.68
2017-12-19T10:19:30.620Z,98494.48
2017-12-19T10:21:58.184Z,98473.94
2017-12-19T10:24:25.737Z,98484.47
2017-12-19T10:26:53.296Z,98489.87
2017-12-19T10:29:20.850Z,98477.63
2017-12-19T10:31:48.482Z,98481.71
2017-12-19T10:34:16.027Z,98483.87
2017-12-19T10:36:43.584Z,98477.69
2017-12-19T10:39:11.140Z,98478.87
2017-12-19T10:41:38.680Z,98480.28
2017-12-19T10:44:06.229Z,98479.41
2017-12-19T10:46:33.764Z,98486.09
2017-12-19T10:49:01.366Z,98496.91
2017-12-19T10:51:28.952Z,98486.27
2017-12-19T10:53:56.490Z,98488.09
2017-12-19T10:56:24.105Z,98487.00
2017-12-19T10:58:51.642Z,98489.42
2017-12-19T11:01:19.606Z,98471.84
2017-12-19T11:03:47.171Z,98488.06
2017-12-19T11:06:14.730Z,98485.75
2017-12-19T11:08:42.336Z,98495.95
2017-12-19T11:11:09.878Z,98491.13
2017-12-19T11:13:37.464Z,98495.86
2017-12-19T11:16:05.010Z,98501.84
2017-12-19T11:18:32.560Z,98509.45
2017-12-19T11:21:00.119Z,98505.17
2017-12-19T11:23:27.649Z,98509.63
2017-12-19T11:25:55.205Z,98505.31
2017-12-19T11:28:22.766Z,98507.27
2017-12-19T11:30:50.338Z,98506.65
2017-12-19T11:33:17.875Z,98508.63
2017-12-19T11:35:45.408Z,98512.21
2017-12-19T11:38:12.954Z,98505.67
2017-12-19T11:40:40.538Z,98493.16
2017-12-19T11:43:08.133Z,98482.70
2017-12-19T11:45:35.708Z,98485.31
2017-12-19T11:48:03.308Z,98484.22
2017-12-19T11:50:30.876Z,98481.53
2017-12-19T11:52:58.445Z,98475.17
2017-12-19T11:55:26.012Z,98481.25
2017-12-19T11:57:53.576Z,98474.39
2017-12-19T12:00:21.472Z,98469.70
2017-12-19T12:02:49.008Z,98467.83
2017-12-19T12:05:16.551Z,98469.16
2017-12-19T12:07:44.136Z,98458.14
2017-12-19T12:10:11.696Z,98450.03
2017-12-19T12:12:39.296Z,98440.45
2017-12-19T12:15:06.848Z,98439.80
2017-12-19T12:17:34.420Z,98435.00
2017-12-19T12:20:01.996Z,98425.39
2017-12-19T12:22:29.549Z,98422.23
2017-12-19T12:24:57.102Z,98421.95
2017-12-19T12:27:24.637Z,98409.34
2017-12-19T12:29:52.447Z,98390.41
2017-12-19T12:32:20.013Z,98390.09
2017-12-19T12:34:47.568Z,98398.41
2017-12-19T12:37:15.172Z,98413.22
2017-12-19T12:39:42.777Z,98416.82
2017-12-19T12:42:10.347Z,98421.64
2017-12-19T12:44:37.917Z,98417.48
2017-12-19T12:47:05.783Z,98400.17
2017-12-19T12:49:33.323Z,98403.20
2017-12-19T12:52:00.844Z,98421.27
2017-12-19T12:54:28.424Z,98414.19
2017-12-19T12:56:55.962Z,98410.25
2017-12-19T12:59:23.529Z,98425.89
2017-12-19T13:01:51.094Z,98424.20
2017-12-19T13:04:18.696Z,98424.02
2017-12-19T13:06:46.282Z,98428.30
2017-12-19T13:09:13.799Z,98446.68
2017-12-19T13:11:41.419Z,98448.50
2017-12-19T13:14:08.971Z,98441.02
2017-12-19T13:16:36.530Z,98451.25
2017-12-19T13:19:04.071Z,98446.96
2017-12-19T13:21:31.610Z,98448.50
2017-12-19T13:23:59.174Z,98443.05
2017-12-19T13:26:26.787Z,98445.24
2017-12-19T13:28:54.653Z,98449.59
2017-12-19T13:31:22.208Z,98449.72
2017-12-19T13:33:49.772Z,98454.82
2017-12-19T13:36:17.405Z,98447.30
2017-12-19T13:38:44.970Z,98445.90
2017-12-19T13:41:12.961Z,98452.44
2017-12-19T13:43:40.495Z,98453.09
2017-12-19T13:46:08.036Z,98453.28
2017-12-19T13:48:35.617Z,98459.13
2017-12-19T13:51:03.163Z,98470.58
2017-12-19T13:53:31.235Z,98473.74
2017-12-19T13:55:58.798Z,98463.56
2017-12-19T13:58:26.372Z,98473.83
2017-12-19T14:00:53.984Z,98482.49
2017-12-19T14:03:21.562Z,98478.46
2017-12-19T14:05:49.159Z,98469.20
2017-12-19T14:08:16.722Z,98476.11
2017-12-19T14:10:44.312Z,98479.67
2017-12-19T14:13:21.573Z,98477.51
2017-12-19T14:15:49.148Z,98482.24
2017-12-19T14:18:16.701Z,98472.00
2017-12-19T14:20:44.239Z,98478.98
2017-12-19T14:23:11.857Z,98479.75
2017-12-19T14:25:39.412Z,98474.31
2017-12-19T14:28:06.996Z,98465.18
2017-12-19T14:30:34.616Z,98465.72
2017-12-19T14:33:02.215Z,98459.30
2017-12-19T14:35:29.781Z,98462.44
2017-12-19T14:37:57.348Z,98461.25
2017-12-19T14:40:24.916Z,98461.69
2017-12-19T14:42:52.464Z,98453.64
2017-12-19T14:45:20.029Z,98441.13
2017-12-19T14:47:47.571Z,98437.59
2017-12-19T14:50:15.162Z,98429.52
2017-12-19T14:52:42.735Z,98435.27
2017-12-19T14:55:10.295Z,98451.91
2017-12-19T14:57:37.856Z,98447.59
2017-12-19T15:00:05.465Z,98458.34
2017-12-19T15:02:33.051Z,98464.66
2017-12-19T15:05:00.632Z,98462.94
2017-12-19T15:07:28.486Z,98456.96
2017-12-19T15:09:56.055Z,98454.73
2017-12-19T15:12:23.612Z,98458.80
2017-12-19T15:14:51.189Z,98462.45
2017-12-19T15:17:18.724Z,98469.48
2017-12-19T15:19:46.682Z,98459.48
2017-12-19T15:22:14.231Z,98464.28
2017-12-19T15:24:41.802Z,98462.09
2017-12-19T15:27:09.433Z,98454.93
2017-12-19T15:29:37.000Z,98445.91
2017-12-19T15:32:04.597Z,98445.81
2017-12-19T15:34:32.182Z,98450.72
2017-12-19T15:36:59.857Z,98448.42
2017-12-19T15:39:27.448Z,98447.42
2017-12-19T15:41:55.021Z,98458.13
2017-12-19T15:44:22.632Z,98459.59
2017-12-19T15:46:50.192Z,98467.88
2017-12-19T15:49:17.798Z,98476.97
2017-12-19T15:51:45.398Z,98486.97
2017-12-19T15:54:13.004Z,98482.78
2017-12-19T15:56:40.572Z,98492.72
2017-12-19T15:59:08.156Z,98490.18
2017-12-19T16:01:35.762Z,98493.80
2017-12-19T16:04:03.329Z,98508.80
2017-12-19T16:06:31.365Z,98503.27
2017-12-19T16:08:58.984Z,98507.79
2017-12-19T16:11:26.577Z,98502.31
2017-12-19T16:13:54.176Z,98503.94
2017-12-19T16:16:21.717Z,98491.00
2017-12-19T16:18:49.356Z,98493.87
2017-12-19T16:21:16.928Z,98485.36
2017-12-19T16:23:44.511Z,98497.31
2017-12-19T16:26:12.105Z,98495.16
2017-12-19T16:28:39.724Z,98486.78
2017-12-19T16:31:07.344Z,98486.34
2017-12-19T16:33:34.943Z,98484.92
2017-12-19T16:36:02.504Z,98480.19
2017-12-19T16:38:30.081Z,98482.22
2017-12-19T16:40:57.689Z,98487.22
2017-12-19T16:43:25.282Z,98488.84
2017-12-19T16:45:52.839Z,98492.12
2017-12-19T16:48:20.446Z,98497.92
2017-12-19T16:50:48.029Z,98496.61
2017-12-19T16:53:15.584Z,98508.67
2017-12-19T16:55:43.151Z,98508.63
2017-12-19T16:58:10.708Z,98517.76
2017-12-19T17:00:38.319Z,98516.03
2017-12-19T17:03:05.866Z,98516.47
2017-12-19T17:05:33.464Z,98516.84
2017-12-19T17:08:01.053Z,98517.22
2017-12-19T17:10:28.617Z,98509.28
2017-12-19T17:12:56.248Z,98515.53
2017-12-19T17:15:23.858Z,98517.99
2017-12-19T17:17:51.435Z,98517.11
2017-12-19T17:20:19.030Z,98515.86
2017-12-19T17:22:46.618Z,98520.49
2017-12-19T17:25:14.212Z,98522.11
2017-12-19T17:27:41.776Z,98528.43
2017-12-19T17:30:09.332Z,98526.78
2017-12-19T17:32:36.940Z,98528.43
2017-12-19T17:35:04.558Z,98524.24
2017-12-19T17:37:32.133Z,98524.61
2017-12-19T17:39:59.689Z,98517.92
2017-12-19T17:42:27.276Z,98524.95
2017-12-19T17:44:54.839Z,98536.13
2017-12-19T17:47:22.433Z,98540.69
2017-12-19T17:49:50.044Z,98541.91
2017-12-19T17:52:17.636Z,98540.66
2017-12-19T17:54:45.282Z,98537.27
2017-12-19T17:57:12.859Z,98531.91
2017-12-19T17:59:40.452Z,98528.53
2017-12-19T18:02:08.024Z,98536.47
2017-12-19T18:04:35.588Z,98535.66
2017-12-19T18:07:03.166Z,98540.69
2017-12-19T18:09:30.736Z,98544.06
2017-12-19T18:11:58.335Z,98532.45
2017-12-19T18:14:25.926Z,98535.80
2017-12-19T18:16:53.526Z,98542.38
2017-12-19T18:19:21.113Z,98535.69
2017-12-19T18:21:48.691Z,98534.44
2017-12-19T18:24:16.307Z,98531.13
2017-12-19T18:26:43.932Z,98525.96
2017-12-19T18:29:11.545Z,98534.84
2017-12-19T18:31:39.168Z,98535.25
2017-12-19T18:34:06.725Z,98532.89
2017-12-19T18:36:34.364Z,98535.80
2017-12-19T18:39:01.971Z,98540.79
2017-12-19T18:41:29.551Z,98550.05
2017-12-19T18:43:57.125Z,98542.48
2017-12-19T18:46:24.722Z,98542.11
2017-12-19T18:48:52.277Z,98541.67
2017-12-19T18:51:19.844Z,98525.05
2017-12-19T18:53:47.408Z,98518.30
2017-12-19T18:56:14.971Z,98520.77
2017-12-19T18:58:42.588Z,98527.38
2017-12-19T19:01:10.187Z,98522.38
2017-12-19T19:03:37.834Z,98528.27
2017-12-19T19:06:05.391Z,98530.76
2017-12-19T19:08:32.901Z,98539.07
2017-12-19T19:11:00.522Z,98533.97
2017-12-19T19:13:28.134Z,98531.84
2017-12-19T19:15:55.817Z,98530.15
2017-12-19T19:18:23.437Z,98528.09
2017-12-19T19:20:51.038Z,98518.42
2017-12-19T19:23:18.645Z,98515.12
2017-12-19T19:25:46.214Z,98520.05
2017-12-19T19:28:13.812Z,98515.39
2017-12-19T19:32:41.232Z,98513.09
2017-12-19T19:35:14.957Z,98512.34
2017-12-19T19:37:50.096Z,98516.09
2017-12-19T19:40:23.367Z,98508.90
2017-12-19T19:43:01.576Z,98505.59
2017-12-19T19:45:34.786Z,98505.55
2017-12-19T19:50:46.079Z,98510.92
2017-12-19T19:53:25.626Z,98514.30
2017-12-19T19:55:57.580Z,98522.24
2017-12-19T19:58:33.540Z,98515.59
2017-12-19T20:01:09.195Z,98519.41
2017-12-19T20:03:43.505Z,98525.55
2017-12-19T20:06:23.875Z,98524.30
2017-12-19T20:09:00.293Z,98525.58
2017-12-19T20:11:33.853Z,98519.74
2017-12-19T20:14:06.943Z,98518.86
2017-12-19T20:16:43.375Z,98527.55
2017-12-19T20:19:18.003Z,98522.81
2017-12-19T20:24:38.964Z,98519.74
2017-12-19T20:27:13.816Z,98515.05
2017-12-19T20:29:52.727Z,98515.75
2017-12-19T20:32:27.696Z,98508.22
2017-12-19T20:35:01.697Z,98507.68
2017-12-19T20:37:36.024Z,98505.08
2017-12-19T20:40:14.517Z,98506.26
2017-12-19T20:42:49.649Z,98504.57
2017-12-19T20:45:28.491Z,98503.66
2017-12-19T20:48:09.157Z,98499.84
2017-12-19T20:50:51.721Z,98495.28
2017-12-19T20:53:25.472Z,98497.14
2017-12-19T20:56:00.911Z,98491.09
2017-12-19T20:58:41.266Z,98505.61
2017-12-19T21:01:14.443Z,98499.43
2017-12-19T21:03:49.921Z,98496.93
2017-12-19T21:06:25.775Z,98501.48
2017-12-19T21:08:57.097Z,98496.42
2017-12-19T21:11:36.835Z,98501.48
2017-12-19T21:14:12.585Z,98496.93
2017-12-19T21:16:46.644Z,98497.33
2017-12-19T21:19:25.772Z,98495.55
2017-12-19T21:22:00.043Z,98493.55
2017-12-19T21:24:34.928Z,98498.45
2017-12-19T21:29:49.746Z,98488.02
2017-12-19T21:32:28.352Z,98473.36
2017-12-19T21:35:00.886Z,98475.42
2017-12-19T21:37:32.261Z,98487.13
2017-12-19T21:40:05.164Z,98485.08
2017-12-19T21:42:39.220Z,98488.12
2017-12-19T21:45:14.415Z,98488.89
2017-12-19T21:47:45.864Z,98492.74
2017-12-19T21:50:20.377Z,98492.57
2017-12-19T21:52:52.671Z,98489.30
2017-12-19T21:55:26.260Z,98491.05
2017-12-19T21:57:58.428Z,98490.69
2017-12-19T22:00:32.349Z,98497.30
2017-12-19T22:03:06.142Z,98494.09
2017-12-19T22:05:39.445Z,98486.94
2017-12-19T22:08:14.379Z,98492.03
2017-12-19T22:10:46.439Z,98489.80
2017-12-19T22:13:22.900Z,98488.48
2017-12-19T22:16:05.528Z,98491.93
2017-12-19T22:18:37.192Z,98491.80
2017-12-19T22:21:09.426Z,98495.55
2017-12-19T22:23:46.233Z,98494.30
2017-12-19T22:26:21.352Z,98493.11
2017-12-19T22:28:56.181Z,98495.28
2017-12-19T22:31:36.877Z,98490.69
2017-12-19T22:34:10.234Z,98498.45
2017-12-19T22:36:43.112Z,98512.33
2017-12-19T22:39:15.280Z,98509.45
2017-12-19T22:41:54.300Z,98509.42
2017-12-19T22:44:29.092Z,98512.47
2017-12-19T22:47:16.212Z,98508.75
2017-12-19T22:49:49.127Z,98508.01
2017-12-19T22:52:21.270Z,98501.80
2017-12-19T22:54:56.410Z,98510.61
2017-12-19T22:57:30.235Z,98524.45
2017-12-19T23:00:07.213Z,98525.81
2017-12-19T23:02:39.470Z,98528.38
2017-12-19T23:05:12.878Z,98525.78
2017-12-19T23:07:43.716Z,98524.63
2017-12-19T23:10:19.261Z,98525.06
2017-12-19T23:12:51.943Z,98525.81
2017-12-19T23:15:32.814Z,98526.25
2017-12-19T23:18:09.478Z,98520.91
2017-12-19T23:20:44.422Z,98522.57
2017-12-19T23:23:21.100Z,98521.80
2017-12-19T23:25:53.164Z,98522.13
2017-12-19T23:28:37.404Z,98527.12
2017-12-19T23:31:13.648Z,98527.16
2017-12-19T23:33:50.129Z,98521.69
2017-12-19T23:36:30.069Z,98521.19
2017-12-19T23:39:08.784Z,98523.65
2017-12-19T23:41:45.149Z,98522.50
2017-12-19T23:44:22.390Z,98517.83
2017-12-19T23:46:58.114Z,98517.39
2017-12-19T23:49:32.496Z,98507.23
2017-12-19T23:52:05.586Z,98505.61
2017-12-19T23:54:39.770Z,98507.73
2017-12-19T23:57:16.480Z,98504.69
